createdAt,value
2018-11-11T00:00:26.195Z,929.3
2018-11-11T00:01:26.538Z,929.2
2018-11-11T00:02:26.435Z,929.2
2018-11-11T00:03:26.554Z,929.3
2018-11-11T00:04:26.441Z,929.4
2018-11-11T00:05:26.350Z,929.3
2018-11-11T00:06:26.270Z,929.2
2018-11-11T00:07:26.149Z,929.3
2018-11-11T00:08:26.082Z,929.3
2018-11-11T00:09:25.968Z,929.2
2018-11-11T00:10:25.870Z,929.2
2018-11-11T00:11:26.074Z,929.2
2018-11-11T00:12:25.801Z,929.3
2018-11-11T00:13:25.525Z,929.3
2018-11-11T00:14:25.271Z,929.3
2018-11-11T00:15:25.015Z,929.3
2018-11-11T00:16:24.780Z,929.3
2018-11-11T00:17:24.519Z,929.4
2018-11-11T00:18:24.260Z,929.4
2018-11-11T00:19:24.000Z,929.1
2018-11-11T00:20:23.746Z,929.3
2018-11-11T00:21:24.127Z,929.3
2018-11-11T00:22:24.050Z,929.5
2018-11-11T00:23:23.974Z,929.5
2018-11-11T00:24:26.852Z,929.4
2018-11-11T00:25:26.752Z,929.4
2018-11-11T00:26:26.700Z,929.3
2018-11-11T00:27:26.624Z,929.5
2018-11-11T00:28:26.942Z,929.3
2018-11-11T00:29:26.865Z,929.4
2018-11-11T00:30:26.762Z,929.4
2018-11-11T00:31:27.086Z,929.5
2018-11-11T00:32:27.022Z,929.4
2018-11-11T00:33:26.926Z,929.5
2018-11-11T00:34:26.838Z,929.4
2018-11-11T00:35:26.733Z,929.5
2018-11-11T00:36:26.624Z,929.6
2018-11-11T00:37:26.542Z,929.6
2018-11-11T00:38:26.459Z,929.7
2018-11-11T00:39:26.562Z,929.6
2018-11-11T00:40:26.462Z,929.6
2018-11-11T00:41:26.879Z,929.6
2018-11-11T00:42:26.803Z,929.5
2018-11-11T00:43:26.737Z,929.6
2018-11-11T00:44:26.634Z,928.7
2018-11-11T00:45:26.537Z,929.6
2018-11-11T00:46:26.476Z,929.5
2018-11-11T00:47:26.372Z,929.5
2018-11-11T00:48:26.274Z,929.5
2018-11-11T00:49:26.196Z,929.6
2018-11-11T00:50:26.104Z,929.6
2018-11-11T00:51:26.272Z,928
2018-11-11T00:52:25.996Z,929.6
2018-11-11T00:53:25.731Z,929.6
2018-11-11T00:54:25.487Z,929.7
2018-11-11T00:55:25.228Z,929.8
2018-11-11T00:56:24.958Z,929.8
2018-11-11T00:57:24.696Z,929.8
2018-11-11T00:58:24.442Z,929.9
2018-11-11T00:59:24.182Z,929.9
2018-11-11T01:00:23.945Z,929.9
2018-11-11T01:01:24.306Z,929.9
2018-11-11T01:02:24.206Z,930
2018-11-11T01:03:24.119Z,930
2018-11-11T01:04:24.002Z,928.7
2018-11-11T01:05:23.896Z,929.9
2018-11-11T01:06:23.808Z,929.9
2018-11-11T01:07:23.710Z,929.9
2018-11-11T01:08:23.626Z,930
2018-11-11T01:09:23.522Z,930
2018-11-11T01:10:23.440Z,930
2018-11-11T01:11:23.778Z,930
2018-11-11T01:12:24.790Z,930
2018-11-11T01:13:24.754Z,930.1
2018-11-11T01:14:24.677Z,930
2018-11-11T01:15:24.609Z,930.2
2018-11-11T01:16:24.535Z,930.1
2018-11-11T01:17:24.440Z,930
2018-11-11T01:18:24.338Z,930.1
2018-11-11T01:19:24.239Z,930.2
2018-11-11T01:20:24.168Z,930.2
2018-11-11T01:21:24.516Z,930
2018-11-11T01:22:24.424Z,930
2018-11-11T01:23:24.313Z,930
2018-11-11T01:24:24.204Z,930.2
2018-11-11T01:25:24.135Z,929.9
2018-11-11T01:26:24.045Z,930
2018-11-11T01:27:23.940Z,930
2018-11-11T01:28:23.855Z,930
2018-11-11T01:29:23.971Z,929.6
2018-11-11T01:30:23.907Z,930.1
2018-11-11T01:31:24.249Z,930.2
2018-11-11T01:32:24.158Z,930.3
2018-11-11T01:33:24.062Z,930.3
2018-11-11T01:34:23.963Z,930.3
2018-11-11T01:35:23.862Z,930.4
2018-11-11T01:36:23.763Z,930.4
2018-11-11T01:37:24.652Z,930.4
2018-11-11T01:38:24.599Z,930.4
2018-11-11T01:39:24.495Z,930.5
2018-11-11T01:40:24.413Z,930.5
2018-11-11T01:41:24.753Z,930.4
2018-11-11T01:42:24.663Z,930.6
2018-11-11T01:43:24.549Z,930.6
2018-11-11T01:44:24.446Z,930.6
2018-11-11T01:45:27.244Z,930.6
2018-11-11T01:46:27.159Z,930.5
2018-11-11T01:47:27.065Z,930.6
2018-11-11T01:48:26.956Z,928.9
2018-11-11T01:49:26.853Z,930.6
2018-11-11T01:50:26.747Z,930.7
2018-11-11T01:51:26.898Z,930.7
2018-11-11T01:52:26.641Z,930.8
2018-11-11T01:53:26.376Z,930.7
2018-11-11T01:54:26.110Z,930.8
2018-11-11T01:55:25.847Z,930.7
2018-11-11T01:56:25.587Z,930.7
2018-11-11T01:57:25.357Z,930.8
2018-11-11T01:58:25.093Z,930.7
2018-11-11T01:59:24.823Z,930.7
2018-11-11T02:00:24.561Z,930.6
2018-11-11T02:01:24.719Z,930.7
2018-11-11T02:02:24.462Z,930.7
2018-11-11T02:03:24.197Z,930.7
2018-11-11T02:04:23.929Z,930.8
2018-11-11T02:05:23.648Z,930.8
2018-11-11T02:06:23.375Z,930.9
2018-11-11T02:07:23.115Z,930.9
2018-11-11T02:08:22.873Z,930.8
2018-11-11T02:09:22.605Z,931
2018-11-11T02:10:22.341Z,931
2018-11-11T02:11:22.493Z,930.9
2018-11-11T02:12:22.231Z,931
2018-11-11T02:13:21.983Z,931
2018-11-11T02:14:21.729Z,931
2018-11-11T02:15:21.468Z,930.9
2018-11-11T02:16:21.201Z,930.8
2018-11-11T02:17:20.925Z,931
2018-11-11T02:18:20.671Z,931
2018-11-11T02:19:20.401Z,930.9
2018-11-11T02:20:20.131Z,931.1
2018-11-11T02:21:20.397Z,931.2
2018-11-11T02:22:20.140Z,931.3
2018-11-11T02:23:19.907Z,931.2
2018-11-11T02:24:19.639Z,931.2
2018-11-11T02:25:19.365Z,931.2
2018-11-11T02:26:19.098Z,931.2
2018-11-11T02:27:18.828Z,931.2
2018-11-11T02:28:18.590Z,931.2
2018-11-11T02:29:18.322Z,931.1
2018-11-11T02:30:18.058Z,931.1
2018-11-11T02:31:18.249Z,931
2018-11-11T02:32:18.002Z,931.1
2018-11-11T02:33:17.743Z,931.2
2018-11-11T02:34:17.486Z,931.2
2018-11-11T02:35:17.217Z,931.2
2018-11-11T02:36:16.975Z,931.1
2018-11-11T02:37:16.861Z,931.2
2018-11-11T02:38:16.612Z,931.3
2018-11-11T02:39:16.345Z,929.9
2018-11-11T02:40:16.084Z,931.3
2018-11-11T02:41:16.420Z,931.3
2018-11-11T02:42:16.326Z,931.3
2018-11-11T02:43:16.233Z,931.3
2018-11-11T02:44:16.155Z,931.3
2018-11-11T02:45:16.068Z,931.2
2018-11-11T02:46:15.970Z,931.1
2018-11-11T02:47:15.881Z,931.1
2018-11-11T02:48:15.786Z,931.3
2018-11-11T02:49:15.672Z,931.2
2018-11-11T02:50:15.577Z,931.2
2018-11-11T02:51:15.907Z,931.2
2018-11-11T02:52:15.800Z,931.3
2018-11-11T02:53:15.725Z,931.3
2018-11-11T02:54:15.612Z,931.2
2018-11-11T02:55:15.547Z,931.4
2018-11-11T02:56:15.505Z,931.3
2018-11-11T02:57:15.404Z,931.4
2018-11-11T02:58:15.332Z,931.2
2018-11-11T02:59:15.238Z,931.2
2018-11-11T03:00:15.196Z,931.3
2018-11-11T03:01:15.621Z,931.3
2018-11-11T03:02:15.783Z,931.2
2018-11-11T03:03:15.709Z,931.3
2018-11-11T03:04:16.153Z,930.7
2018-11-11T03:05:16.100Z,931.2
2018-11-11T03:06:16.241Z,931.3
2018-11-11T03:07:16.162Z,931.3
2018-11-11T03:08:16.084Z,931.3
2018-11-11T03:09:15.989Z,931.3
2018-11-11T03:10:15.937Z,929.8
2018-11-11T03:11:16.363Z,931.3
2018-11-11T03:12:16.285Z,931.2
2018-11-11T03:13:16.235Z,931.3
2018-11-11T03:14:16.136Z,931.3
2018-11-11T03:15:16.050Z,931.3
2018-11-11T03:16:15.926Z,931.2
2018-11-11T03:17:15.841Z,931.2
2018-11-11T03:18:15.823Z,931.1
2018-11-11T03:19:15.745Z,931.1
2018-11-11T03:20:15.666Z,931.2
2018-11-11T03:21:16.002Z,931.1
2018-11-11T03:22:15.896Z,931.1
2018-11-11T03:23:15.818Z,931.2
2018-11-11T03:24:15.718Z,931.2
2018-11-11T03:25:16.600Z,931.3
2018-11-11T03:26:16.495Z,931.3
2018-11-11T03:27:16.437Z,931.4
2018-11-11T03:28:16.364Z,931.3
2018-11-11T03:29:19.030Z,931.2
2018-11-11T03:30:18.957Z,931.4
2018-11-11T03:31:19.326Z,931.5
2018-11-11T03:32:19.250Z,931.3
2018-11-11T03:33:19.150Z,931.3
2018-11-11T03:34:19.061Z,931.4
2018-11-11T03:35:18.952Z,931.3
2018-11-11T03:36:18.853Z,931.4
2018-11-11T03:37:18.746Z,931.4
2018-11-11T03:38:18.668Z,931.3
2018-11-11T03:39:19.564Z,931.5
2018-11-11T03:40:19.514Z,931.3
2018-11-11T03:41:19.871Z,931.5
2018-11-11T03:42:19.771Z,931.5
2018-11-11T03:43:19.684Z,931.6
2018-11-11T03:44:19.672Z,931.6
2018-11-11T03:45:19.572Z,931.6
2018-11-11T03:46:19.490Z,931.7
2018-11-11T03:47:19.411Z,931.7
2018-11-11T03:48:19.328Z,931.7
2018-11-11T03:49:19.244Z,931.7
2018-11-11T03:50:19.180Z,931.7
2018-11-11T03:51:19.495Z,931.7
2018-11-11T03:52:19.392Z,931.7
2018-11-11T03:53:19.291Z,931.6
2018-11-11T03:54:19.186Z,931.8
2018-11-11T03:55:19.091Z,931.8
2018-11-11T03:56:18.988Z,931.8
2018-11-11T03:57:18.888Z,931.9
2018-11-11T03:58:18.796Z,931.8
2018-11-11T03:59:18.708Z,931.8
2018-11-11T04:00:18.838Z,931
2018-11-11T04:01:19.235Z,931.7
2018-11-11T04:02:19.139Z,931.8
2018-11-11T04:03:19.068Z,931.9
2018-11-11T04:04:18.969Z,931.8
2018-11-11T04:05:18.876Z,931.8
2018-11-11T04:06:18.780Z,931.7
2018-11-11T04:07:18.679Z,931.8
2018-11-11T04:08:18.601Z,931.8
2018-11-11T04:09:18.490Z,931.8
2018-11-11T04:10:19.220Z,931.9
2018-11-11T04:11:19.791Z,931.9
2018-11-11T04:12:22.430Z,932
2018-11-11T04:13:22.359Z,932
2018-11-11T04:14:22.269Z,932
2018-11-11T04:15:22.197Z,931.9
2018-11-11T04:16:22.108Z,931.9
2018-11-11T04:17:22.985Z,932
2018-11-11T04:18:22.903Z,932
2018-11-11T04:19:22.796Z,932
2018-11-11T04:20:22.689Z,931.9
2018-11-11T04:21:23.097Z,932
2018-11-11T04:22:22.828Z,932
2018-11-11T04:23:22.581Z,931.9
2018-11-11T04:24:22.318Z,932
2018-11-11T04:25:22.051Z,932
2018-11-11T04:26:21.782Z,932
2018-11-11T04:27:21.547Z,932
2018-11-11T04:28:21.286Z,931.9
2018-11-11T04:29:21.023Z,932
2018-11-11T04:30:20.981Z,931.9
2018-11-11T04:31:21.319Z,931.9
2018-11-11T04:32:21.226Z,931.9
2018-11-11T04:33:24.117Z,931.9
2018-11-11T04:34:24.016Z,931.9
2018-11-11T04:35:23.924Z,931.8
2018-11-11T04:36:23.812Z,931.8
2018-11-11T04:37:23.736Z,931.8
2018-11-11T04:38:23.660Z,931.8
2018-11-11T04:39:24.579Z,931.7
2018-11-11T04:40:24.664Z,931.8
2018-11-11T04:41:24.825Z,931.8
2018-11-11T04:42:24.594Z,931.7
2018-11-11T04:43:24.342Z,931.8
2018-11-11T04:44:24.085Z,931.8
2018-11-11T04:45:23.815Z,931.8
2018-11-11T04:46:24.020Z,931.7
2018-11-11T04:47:23.827Z,931.7
2018-11-11T04:48:23.588Z,931.6
2018-11-11T04:49:23.341Z,931.6
2018-11-11T04:50:23.067Z,931.4
2018-11-11T04:51:23.295Z,931.3
2018-11-11T04:52:23.249Z,931.2
2018-11-11T04:53:22.996Z,931.2
2018-11-11T04:54:22.731Z,931
2018-11-11T04:55:22.468Z,930.9
2018-11-11T04:56:22.203Z,930.9
2018-11-11T04:57:21.940Z,930.9
2018-11-11T04:58:24.517Z,931
2018-11-11T04:59:24.259Z,931
2018-11-11T05:00:24.012Z,931.1
2018-11-11T05:01:24.871Z,930.9
2018-11-11T05:02:24.778Z,930.9
2018-11-11T05:03:24.767Z,930.9
2018-11-11T05:04:24.918Z,930.9
2018-11-11T05:05:24.835Z,930.8
2018-11-11T05:06:24.711Z,930.2
2018-11-11T05:07:24.615Z,930.7
2018-11-11T05:08:24.529Z,930.7
2018-11-11T05:09:24.421Z,930.7
2018-11-11T05:10:24.353Z,930.7
2018-11-11T05:11:24.713Z,930.8
2018-11-11T05:12:24.610Z,930.7
2018-11-11T05:13:24.532Z,930.8
2018-11-11T05:14:24.441Z,930.8
2018-11-11T05:15:27.205Z,930.7
2018-11-11T05:16:27.103Z,930.9
2018-11-11T05:17:27.014Z,930.7
2018-11-11T05:18:26.937Z,931
2018-11-11T05:19:26.825Z,930.7
2018-11-11T05:20:26.714Z,930.8
2018-11-11T05:21:27.020Z,930.8
2018-11-11T05:22:26.906Z,930.7
2018-11-11T05:23:26.823Z,930.8
2018-11-11T05:24:26.730Z,930.8
2018-11-11T05:25:26.645Z,930.9
2018-11-11T05:26:26.762Z,930.8
2018-11-11T05:27:26.672Z,930.7
2018-11-11T05:28:26.596Z,930.7
2018-11-11T05:29:26.503Z,929.2
2018-11-11T05:30:26.436Z,930.9
2018-11-11T05:31:27.185Z,931
2018-11-11T05:32:27.107Z,931
2018-11-11T05:33:27.036Z,931
2018-11-11T05:34:26.932Z,930.9
2018-11-11T05:35:26.810Z,931.1
2018-11-11T05:36:26.692Z,931.1
2018-11-11T05:37:26.591Z,931.2
2018-11-11T05:38:26.503Z,931.3
2018-11-11T05:39:26.407Z,931.3
2018-11-11T05:40:26.305Z,931.3
2018-11-11T05:41:26.640Z,931.2
2018-11-11T05:42:26.529Z,931.3
2018-11-11T05:43:26.432Z,931.3
2018-11-11T05:44:26.400Z,931.4
2018-11-11T05:45:26.289Z,931.1
2018-11-11T05:46:26.187Z,931.2
2018-11-11T05:47:26.113Z,931.3
2018-11-11T05:48:26.001Z,931.3
2018-11-11T05:49:25.908Z,931.4
2018-11-11T05:50:25.813Z,931.5
2018-11-11T05:51:26.135Z,931.6
2018-11-11T05:52:26.034Z,931.5
2018-11-11T05:53:25.933Z,931.4
2018-11-11T05:54:25.821Z,931.6
2018-11-11T05:55:25.735Z,931.5
2018-11-11T05:56:25.635Z,931.6
2018-11-11T05:57:25.554Z,931.6
2018-11-11T05:58:25.456Z,931.3
2018-11-11T05:59:25.361Z,931.4
2018-11-11T06:00:26.278Z,931.6
2018-11-11T06:01:26.620Z,931.6
2018-11-11T06:02:26.522Z,931.6
2018-11-11T06:03:26.423Z,930.3
2018-11-11T06:04:26.325Z,931.7
2018-11-11T06:05:26.247Z,931.8
2018-11-11T06:06:27.158Z,931.7
2018-11-11T06:07:27.054Z,931.6
2018-11-11T06:08:26.942Z,931.7
2018-11-11T06:09:26.848Z,931.7
2018-11-11T06:10:26.756Z,931.7
2018-11-11T06:11:27.111Z,931.7
2018-11-11T06:12:27.028Z,931.7
2018-11-11T06:13:26.916Z,931.7
2018-11-11T06:14:26.811Z,931.6
2018-11-11T06:15:26.712Z,931.7
2018-11-11T06:16:26.624Z,931.7
2018-11-11T06:17:26.522Z,931.6
2018-11-11T06:18:26.420Z,930.8
2018-11-11T06:19:26.317Z,931.8
2018-11-11T06:20:26.214Z,931.7
2018-11-11T06:21:26.550Z,932
2018-11-11T06:22:26.472Z,931.9
2018-11-11T06:23:26.372Z,932
2018-11-11T06:24:26.273Z,932
2018-11-11T06:25:26.180Z,931.8
2018-11-11T06:26:26.106Z,931.9
2018-11-11T06:27:26.351Z,932
2018-11-11T06:28:26.350Z,932
2018-11-11T06:29:26.253Z,932
2018-11-11T06:30:26.172Z,931.9
2018-11-11T06:31:26.796Z,932
2018-11-11T06:32:26.712Z,932
2018-11-11T06:33:26.648Z,931.9
2018-11-11T06:34:26.562Z,932
2018-11-11T06:35:26.473Z,932
2018-11-11T06:36:26.375Z,932.1
2018-11-11T06:37:26.282Z,932.2
2018-11-11T06:38:26.207Z,932.2
2018-11-11T06:39:26.108Z,932.1
2018-11-11T06:40:26.026Z,932.2
2018-11-11T06:41:26.200Z,932.2
2018-11-11T06:42:25.916Z,932.2
2018-11-11T06:43:25.883Z,932.1
2018-11-11T06:44:25.760Z,932
2018-11-11T06:45:25.556Z,932.2
2018-11-11T06:46:25.346Z,932.1
2018-11-11T06:47:25.087Z,932.1
2018-11-11T06:48:24.828Z,932.1
2018-11-11T06:49:24.606Z,932.1
2018-11-11T06:50:24.561Z,932.1
2018-11-11T06:51:24.881Z,931.8
2018-11-11T06:52:24.774Z,931.9
2018-11-11T06:53:24.682Z,931.9
2018-11-11T06:54:24.574Z,931.8
2018-11-11T06:55:24.514Z,931.7
2018-11-11T06:56:24.430Z,931.8
2018-11-11T06:57:24.336Z,931.1
2018-11-11T06:58:24.248Z,931.9
2018-11-11T06:59:24.144Z,931.9
2018-11-11T07:00:24.088Z,932
2018-11-11T07:01:24.414Z,932
2018-11-11T07:02:24.312Z,932
2018-11-11T07:03:24.198Z,932
2018-11-11T07:04:24.102Z,931.9
2018-11-11T07:05:24.022Z,931.9
2018-11-11T07:06:23.942Z,932
2018-11-11T07:07:24.071Z,932
2018-11-11T07:08:24.992Z,931.9
2018-11-11T07:09:24.922Z,932
2018-11-11T07:10:24.892Z,932
2018-11-11T07:11:25.266Z,932.2
2018-11-11T07:12:25.182Z,932.1
2018-11-11T07:13:25.082Z,932.1
2018-11-11T07:14:26.005Z,932.2
2018-11-11T07:15:25.947Z,932.2
2018-11-11T07:16:25.879Z,932.1
2018-11-11T07:17:25.771Z,932.1
2018-11-11T07:18:25.680Z,932
2018-11-11T07:19:25.587Z,932
2018-11-11T07:20:25.489Z,932
2018-11-11T07:21:25.848Z,932.1
2018-11-11T07:22:25.770Z,932
2018-11-11T07:23:26.039Z,932.1
2018-11-11T07:24:25.954Z,932
2018-11-11T07:25:25.877Z,932.1
2018-11-11T07:26:25.785Z,932
2018-11-11T07:27:25.694Z,932.2
2018-11-11T07:28:25.599Z,932.2
2018-11-11T07:29:25.514Z,932.2
2018-11-11T07:30:25.421Z,932.2
2018-11-11T07:31:26.022Z,932.2
2018-11-11T07:32:25.984Z,932.1
2018-11-11T07:33:25.884Z,932.1
2018-11-11T07:34:25.821Z,932.3
2018-11-11T07:35:25.752Z,932.3
2018-11-11T07:36:25.632Z,932.3
2018-11-11T07:37:25.551Z,932.3
2018-11-11T07:38:25.468Z,932.3
2018-11-11T07:39:25.385Z,932.4
2018-11-11T07:40:25.307Z,932.3
2018-11-11T07:41:25.674Z,932.2
2018-11-11T07:42:26.413Z,932.2
2018-11-11T07:43:26.349Z,932.2
2018-11-11T07:44:26.515Z,932
2018-11-11T07:45:26.425Z,932.2
2018-11-11T07:46:26.350Z,932.2
2018-11-11T07:47:26.246Z,932.3
2018-11-11T07:48:26.138Z,932.3
2018-11-11T07:49:26.069Z,932.4
2018-11-11T07:50:25.974Z,932.4
2018-11-11T07:51:26.302Z,932.4
2018-11-11T07:52:26.210Z,932.5
2018-11-11T07:53:26.161Z,932.5
2018-11-11T07:54:26.082Z,932.5
2018-11-11T07:55:25.969Z,932.5
2018-11-11T07:56:25.915Z,932.6
2018-11-11T07:57:25.834Z,932.4
2018-11-11T07:58:29.511Z,932.5
2018-11-11T07:59:29.438Z,932.4
2018-11-11T08:00:29.329Z,932.5
2018-11-11T08:01:29.739Z,932.5
2018-11-11T08:02:29.706Z,932.5
2018-11-11T08:03:29.453Z,932.6
2018-11-11T08:04:29.185Z,932.6
2018-11-11T08:05:28.933Z,932.6
2018-11-11T08:06:28.668Z,932.5
2018-11-11T08:07:28.421Z,932.6
2018-11-11T08:08:28.177Z,932.5
2018-11-11T08:09:27.919Z,932.7
2018-11-11T08:10:27.727Z,932.6
2018-11-11T08:11:28.334Z,932.6
2018-11-11T08:12:28.251Z,932.7
2018-11-11T08:13:28.227Z,932.3
2018-11-11T08:14:28.149Z,932.6
2018-11-11T08:15:28.058Z,932.7
2018-11-11T08:16:28.091Z,932.7
2018-11-11T08:17:27.992Z,932.8
2018-11-11T08:18:27.935Z,932.6
2018-11-11T08:19:27.842Z,932.7
2018-11-11T08:20:27.754Z,932.9
2018-11-11T08:21:28.099Z,933
2018-11-11T08:22:27.999Z,933
2018-11-11T08:23:27.953Z,933
2018-11-11T08:24:27.852Z,933.1
2018-11-11T08:25:28.391Z,933
2018-11-11T08:26:28.385Z,932.9
2018-11-11T08:27:28.303Z,932.9
2018-11-11T08:28:28.206Z,932.9
2018-11-11T08:29:28.129Z,933.1
2018-11-11T08:30:28.037Z,933.2
2018-11-11T08:31:31.499Z,933
2018-11-11T08:32:31.402Z,933
2018-11-11T08:33:31.311Z,933
2018-11-11T08:34:31.243Z,933.2
2018-11-11T08:35:31.136Z,933.3
2018-11-11T08:36:31.040Z,932.5
2018-11-11T08:37:30.961Z,933.3
2018-11-11T08:38:30.877Z,933.3
2018-11-11T08:39:30.803Z,933.3
2018-11-11T08:40:31.478Z,933.4
2018-11-11T08:41:32.037Z,933.4
2018-11-11T08:42:31.947Z,933.4
2018-11-11T08:43:31.877Z,933.4
2018-11-11T08:44:31.771Z,933.4
2018-11-11T08:45:31.717Z,932.6
2018-11-11T08:46:31.613Z,932.8
2018-11-11T08:47:31.523Z,932.7
2018-11-11T08:48:31.439Z,933.4
2018-11-11T08:49:31.347Z,933.4
2018-11-11T08:50:31.263Z,933.4
2018-11-11T08:51:31.659Z,933.4
2018-11-11T08:52:31.403Z,933.4
2018-11-11T08:53:31.141Z,933.4
2018-11-11T08:54:30.893Z,933.3
2018-11-11T08:55:30.632Z,933.4
2018-11-11T08:56:30.390Z,933.4
2018-11-11T08:57:30.148Z,933.3
2018-11-11T08:58:29.892Z,933.5
2018-11-11T08:59:29.633Z,933.6
2018-11-11T09:00:29.386Z,933.5
2018-11-11T09:01:30.733Z,933.5
2018-11-11T09:02:30.659Z,933.6
2018-11-11T09:03:30.554Z,933.6
2018-11-11T09:04:30.468Z,933.6
2018-11-11T09:05:30.372Z,933.5
2018-11-11T09:06:30.304Z,933.4
2018-11-11T09:07:30.255Z,933.5
2018-11-11T09:08:30.173Z,933.5
2018-11-11T09:09:30.072Z,933.5
2018-11-11T09:10:29.974Z,933.5
2018-11-11T09:11:30.917Z,933.5
2018-11-11T09:12:30.867Z,933.4
2018-11-11T09:13:30.748Z,933.6
2018-11-11T09:14:30.674Z,933.5
2018-11-11T09:15:30.860Z,933.6
2018-11-11T09:16:30.791Z,932.2
2018-11-11T09:17:31.627Z,933.7
2018-11-11T09:18:31.904Z,933.7
2018-11-11T09:19:31.826Z,933.7
2018-11-11T09:20:31.743Z,933.5
2018-11-11T09:21:33.314Z,933.7
2018-11-11T09:22:33.265Z,933.6
2018-11-11T09:23:33.540Z,932.2
2018-11-11T09:24:34.163Z,933.7
2018-11-11T09:25:34.056Z,933.7
2018-11-11T09:26:33.969Z,933.7
2018-11-11T09:27:34.101Z,933.7
2018-11-11T09:28:34.013Z,933.7
2018-11-11T09:29:35.625Z,933.9
2018-11-11T09:30:36.003Z,933.8
2018-11-11T09:31:36.393Z,933.8
2018-11-11T09:32:36.164Z,933.9
2018-11-11T09:33:35.905Z,933.8
2018-11-11T09:34:35.652Z,934
2018-11-11T09:35:35.403Z,934
2018-11-11T09:36:35.152Z,933.9
2018-11-11T09:37:34.912Z,933.9
2018-11-11T09:38:34.658Z,933.9
2018-11-11T09:39:34.622Z,933.8
2018-11-11T09:40:35.061Z,933.9
2018-11-11T09:41:35.449Z,933.8
2018-11-11T09:42:39.313Z,934
2018-11-11T09:43:39.502Z,934
2018-11-11T09:44:39.409Z,934
2018-11-11T09:45:39.326Z,934
2018-11-11T09:46:39.472Z,934.1
2018-11-11T09:47:40.266Z,934
2018-11-11T09:48:40.198Z,934.1
2018-11-11T09:49:40.096Z,934.2
2018-11-11T09:50:40.080Z,934.2
2018-11-11T09:51:40.466Z,934.3
2018-11-11T09:52:41.345Z,934.3
2018-11-11T09:53:41.109Z,934.2
2018-11-11T09:54:40.852Z,934.2
2018-11-11T09:55:40.614Z,934.2
2018-11-11T09:56:40.364Z,934.1
2018-11-11T09:57:40.357Z,934.2
2018-11-11T09:58:40.545Z,934.2
2018-11-11T09:59:40.755Z,934.2
2018-11-11T10:00:40.517Z,934.2
2018-11-11T10:01:40.711Z,934.1
2018-11-11T10:02:41.466Z,934.1
2018-11-11T10:03:41.228Z,934.1
2018-11-11T10:04:40.968Z,934.2
2018-11-11T10:05:40.727Z,934.2
2018-11-11T10:06:42.527Z,934.3
2018-11-11T10:07:42.456Z,934.3
2018-11-11T10:08:42.212Z,934.3
2018-11-11T10:09:41.950Z,934.3
2018-11-11T10:10:41.699Z,934.2
2018-11-11T10:11:42.774Z,934.3
2018-11-11T10:12:42.970Z,934.3
2018-11-11T10:13:42.924Z,934.3
2018-11-11T10:14:42.859Z,933
2018-11-11T10:15:42.773Z,934.3
2018-11-11T10:16:42.910Z,934.2
2018-11-11T10:17:42.852Z,934.2
2018-11-11T10:18:42.798Z,934
2018-11-11T10:19:42.716Z,934
2018-11-11T10:20:43.310Z,934
2018-11-11T10:21:43.794Z,934
2018-11-11T10:22:43.694Z,934
2018-11-11T10:23:43.448Z,934.1
2018-11-11T10:24:43.198Z,934.1
2018-11-11T10:25:43.127Z,934.2
2018-11-11T10:26:42.860Z,934.3
2018-11-11T10:27:42.607Z,934.3
2018-11-11T10:28:42.348Z,934.3
2018-11-11T10:29:43.234Z,934.3
2018-11-11T10:30:42.999Z,934.4
2018-11-11T10:31:43.351Z,934.4
2018-11-11T10:32:43.911Z,934.4
2018-11-11T10:33:44.430Z,934.4
2018-11-11T10:34:44.356Z,934.5
2018-11-11T10:35:45.881Z,934.5
2018-11-11T10:36:45.779Z,934.4
2018-11-11T10:37:45.694Z,934.4
2018-11-11T10:38:45.850Z,934.4
2018-11-11T10:39:45.806Z,933.8
2018-11-11T10:40:45.723Z,934.4
2018-11-11T10:41:46.313Z,934.2
2018-11-11T10:42:46.218Z,934.2
2018-11-11T10:43:46.128Z,934.3
2018-11-11T10:44:46.301Z,934.3
2018-11-11T10:45:46.229Z,934.2
2018-11-11T10:46:46.159Z,934.3
2018-11-11T10:47:46.072Z,934.2
2018-11-11T10:48:46.011Z,934.2
2018-11-11T10:49:45.927Z,934.3
2018-11-11T10:50:45.903Z,934.2
2018-11-11T10:51:46.264Z,934.2
2018-11-11T10:52:46.197Z,934.2
2018-11-11T10:53:46.119Z,934.2
2018-11-11T10:54:46.066Z,934.3
2018-11-11T10:55:46.004Z,934.2
2018-11-11T10:56:45.972Z,934.2
2018-11-11T10:57:46.126Z,934.2
2018-11-11T10:58:46.034Z,933.9
2018-11-11T10:59:45.933Z,932.8
2018-11-11T11:00:45.926Z,934.1
2018-11-11T11:01:46.290Z,934.2
2018-11-11T11:02:46.201Z,934.2
2018-11-11T11:03:46.122Z,934.3
2018-11-11T11:04:46.265Z,934.2
2018-11-11T11:05:46.282Z,934.1
2018-11-11T11:06:46.214Z,934.3
2018-11-11T11:07:46.106Z,934.3
2018-11-11T11:08:46.018Z,934.4
2018-11-11T11:09:45.936Z,934.4
2018-11-11T11:10:45.847Z,934.4
2018-11-11T11:11:46.186Z,934.3
2018-11-11T11:12:46.074Z,934.3
2018-11-11T11:13:46.625Z,934.3
2018-11-11T11:14:46.611Z,934.3
2018-11-11T11:15:46.522Z,934.2
2018-11-11T11:16:46.452Z,934
2018-11-11T11:17:47.885Z,934.2
2018-11-11T11:18:47.799Z,934
2018-11-11T11:19:47.711Z,934.2
2018-11-11T11:20:47.629Z,934.1
2018-11-11T11:21:47.975Z,934.2
2018-11-11T11:22:49.084Z,934.2
2018-11-11T11:23:49.157Z,934.2
2018-11-11T11:24:48.931Z,934.2
2018-11-11T11:25:49.279Z,934.1
2018-11-11T11:26:49.111Z,934.2
2018-11-11T11:27:48.865Z,934.1
2018-11-11T11:28:48.607Z,934.2
2018-11-11T11:29:48.596Z,933.9
2018-11-11T11:30:48.344Z,934.2
2018-11-11T11:31:49.667Z,934.2
2018-11-11T11:32:49.680Z,934.2
2018-11-11T11:33:49.900Z,934.2
2018-11-11T11:34:49.653Z,932.8
2018-11-11T11:35:52.983Z,934.2
2018-11-11T11:36:53.131Z,934.1
2018-11-11T11:37:53.016Z,934
2018-11-11T11:38:52.793Z,934.2
2018-11-11T11:39:52.532Z,934.2
2018-11-11T11:40:52.273Z,934.1
2018-11-11T11:41:53.235Z,934.1
2018-11-11T11:42:53.165Z,934.1
2018-11-11T11:43:53.511Z,934
2018-11-11T11:44:53.423Z,934.1
2018-11-11T11:45:53.361Z,934.1
2018-11-11T11:46:53.263Z,934
2018-11-11T11:47:53.228Z,933.9
2018-11-11T11:48:53.130Z,934.1
2018-11-11T11:49:53.322Z,934
2018-11-11T11:50:53.600Z,934
2018-11-11T11:51:54.775Z,933.9
2018-11-11T11:52:55.666Z,934
2018-11-11T11:53:55.799Z,934.1
2018-11-11T11:54:56.116Z,934
2018-11-11T11:55:56.425Z,934.1
2018-11-11T11:56:56.628Z,934.1
2018-11-11T11:57:57.064Z,934.2
2018-11-11T11:58:57.127Z,934.1
2018-11-11T11:59:57.034Z,934
2018-11-11T12:00:56.987Z,934.1
2018-11-11T12:03:06.949Z,934
2018-11-11T12:04:06.882Z,934
2018-11-11T12:05:06.813Z,934
2018-11-11T12:06:06.990Z,934.1
2018-11-11T12:07:06.972Z,934.2
2018-11-11T12:08:06.901Z,934.2
2018-11-11T12:09:07.481Z,934.1
2018-11-11T12:10:08.362Z,934.1
2018-11-11T12:11:09.113Z,934
2018-11-11T12:12:09.815Z,934.1
2018-11-11T12:13:12.004Z,933.7
2018-11-11T12:14:12.557Z,934.1
2018-11-11T12:15:13.074Z,934
2018-11-11T12:16:13.308Z,934.1
2018-11-11T12:17:13.998Z,934.1
2018-11-11T12:18:13.981Z,934
2018-11-11T12:19:13.745Z,934
2018-11-11T12:20:13.492Z,934.1
2018-11-11T12:21:13.239Z,934.1
2018-11-11T12:22:12.974Z,932.9
2018-11-11T12:23:13.939Z,934.1
2018-11-11T12:24:13.938Z,934
2018-11-11T12:25:13.835Z,934
2018-11-11T12:26:13.739Z,934
2018-11-11T12:27:13.642Z,933.9
2018-11-11T12:28:13.550Z,933.9
2018-11-11T12:29:13.487Z,934
2018-11-11T12:30:13.810Z,933.8
2018-11-11T12:31:13.778Z,933.9
2018-11-11T12:32:13.678Z,933.9
2018-11-11T12:33:14.001Z,933.9
2018-11-11T12:34:13.928Z,933.8
2018-11-11T12:35:14.098Z,933.8
2018-11-11T12:36:14.013Z,933.8
2018-11-11T12:37:13.932Z,933.8
2018-11-11T12:38:13.854Z,933.8
2018-11-11T12:39:14.909Z,933.6
2018-11-11T12:40:16.922Z,933.8
2018-11-11T12:41:17.004Z,933.5
2018-11-11T12:42:16.898Z,932.3
2018-11-11T12:43:17.613Z,933.7
2018-11-11T12:44:17.612Z,933.7
2018-11-11T12:45:17.539Z,933.8
2018-11-11T12:46:17.446Z,933.7
2018-11-11T12:47:17.374Z,933.8
2018-11-11T12:48:17.274Z,933.7
2018-11-11T12:49:17.447Z,933.7
2018-11-11T12:50:17.970Z,933.8
2018-11-11T12:51:17.984Z,933.7
2018-11-11T12:52:17.906Z,933.8
2018-11-11T12:53:18.071Z,933.7
2018-11-11T12:54:17.832Z,933.8
2018-11-11T12:55:17.923Z,933.7
2018-11-11T12:56:17.708Z,933.6
2018-11-11T12:57:17.430Z,933.8
2018-11-11T12:58:17.146Z,933.8
2018-11-11T12:59:16.909Z,933.8
2018-11-11T13:00:16.656Z,933.8
2018-11-11T13:01:16.392Z,933.9